sensor_id;sensor_type;location;lat;lon;timestamp;pressure;altitude;pressure_sealevel;temperature;humidity
65718;BME280;52445;52.466;-1.016;2023-02-23T00:01:25;100141.47;;;5.59;78.41
65718;BME280;52445;52.466;-1.016;2023-02-23T00:03:54;100149.16;;;5.58;78.34
65718;BME280;52445;52.466;-1.016;2023-02-23T00:06:22;100141.47;;;5.59;78.74
65718;BME280;52445;52.466;-1.016;2023-02-23T00:08:49;100152.56;;;5.57;78.74
65718;BME280;52445;52.466;-1.016;2023-02-23T00:11:18;100144.88;;;5.58;77.88
65718;BME280;52445;52.466;-1.016;2023-02-23T00:13:47;100153.31;;;5.51;78.30
65718;BME280;52445;52.466;-1.016;2023-02-23T00:16:18;100161.03;;;5.51;78.91
65718;BME280;52445;52.466;-1.016;2023-02-23T00:18:50;100159.25;;;5.48;77.69
65718;BME280;52445;52.466;-1.016;2023-02-23T00:21:19;100150.50;;;5.40;78.75
65718;BME280;52445;52.466;-1.016;2023-02-23T00:23:49;100160.97;;;5.49;77.71
65718;BME280;52445;52.466;-1.016;2023-02-23T00:26:17;100158.25;;;5.42;78.82
65718;BME280;52445;52.466;-1.016;2023-02-23T00:28:47;100157.44;;;5.44;78.00
65718;BME280;52445;52.466;-1.016;2023-02-23T00:31:14;100157.16;;;5.30;78.88
65718;BME280;52445;52.466;-1.016;2023-02-23T00:33:41;100164.16;;;5.37;77.86
65718;BME280;52445;52.466;-1.016;2023-02-23T00:36:10;100169.38;;;5.40;78.31
65718;BME280;52445;52.466;-1.016;2023-02-23T00:38:39;100165.13;;;5.43;77.35
65718;BME280;52445;52.466;-1.016;2023-02-23T00:41:08;100168.53;;;5.42;77.35
65718;BME280;52445;52.466;-1.016;2023-02-23T00:43:37;100165.19;;;5.46;77.58
65718;BME280;52445;52.466;-1.016;2023-02-23T00:46:04;100170.28;;;5.43;78.25
65718;BME280;52445;52.466;-1.016;2023-02-23T00:48:32;100169.41;;;5.42;77.16
65718;BME280;52445;52.466;-1.016;2023-02-23T00:51:01;100160.00;;;5.43;77.14
65718;BME280;52445;52.466;-1.016;2023-02-23T00:53:28;100175.44;;;5.46;76.90
65718;BME280;52445;52.466;-1.016;2023-02-23T00:55:54;100168.53;;;5.42;78.14
65718;BME280;52445;52.466;-1.016;2023-02-23T00:58:23;100175.53;;;5.49;76.54
65718;BME280;52445;52.466;-1.016;2023-02-23T01:00:50;100178.09;;;5.49;76.42
65718;BME280;52445;52.466;-1.016;2023-02-23T01:03:17;100179.00;;;5.51;77.70
65718;BME280;52445;52.466;-1.016;2023-02-23T01:05:44;100173.91;;;5.54;76.63
65718;BME280;52445;52.466;-1.016;2023-02-23T01:08:11;100178.94;;;5.48;77.79
65718;BME280;52445;52.466;-1.016;2023-02-23T01:10:39;100178.13;;;5.50;76.76
65718;BME280;52445;52.466;-1.016;2023-02-23T01:13:08;100179.69;;;5.42;76.58
65718;BME280;52445;52.466;-1.016;2023-02-23T01:15:41;100189.13;;;5.45;76.80
65718;BME280;52445;52.466;-1.016;2023-02-23T01:18:09;100181.50;;;5.48;77.05
65718;BME280;52445;52.466;-1.016;2023-02-23T01:20:36;100184.00;;;5.45;76.80
65718;BME280;52445;52.466;-1.016;2023-02-23T01:23:04;100187.50;;;5.47;77.23
65718;BME280;52445;52.466;-1.016;2023-02-23T01:25:32;100187.41;;;5.44;77.02
65718;BME280;52445;52.466;-1.016;2023-02-23T01:27:59;100194.41;;;5.51;76.88
65718;BME280;52445;52.466;-1.016;2023-02-23T01:30:26;100201.34;;;5.55;77.40
65718;BME280;52445;52.466;-1.016;2023-02-23T01:32:52;100202.25;;;5.59;77.26
65718;BME280;52445;52.466;-1.016;2023-02-23T01:35:19;100197.94;;;5.56;77.13
65718;BME280;52445;52.466;-1.016;2023-02-23T01:37:45;100203.16;;;5.59;77.00
65718;BME280;52445;52.466;-1.016;2023-02-23T01:40:15;100199.69;;;5.59;76.01
65718;BME280;52445;52.466;-1.016;2023-02-23T01:42:44;100200.63;;;5.62;76.02
65718;BME280;52445;52.466;-1.016;2023-02-23T01:45:21;100200.56;;;5.59;76.15
65718;BME280;52445;52.466;-1.016;2023-02-23T01:47:50;100199.81;;;5.63;76.53
65718;BME280;52445;52.466;-1.016;2023-02-23T01:50:17;100199.69;;;5.59;76.81
65718;BME280;52445;52.466;-1.016;2023-02-23T01:52:46;100197.75;;;5.47;76.77
65718;BME280;52445;52.466;-1.016;2023-02-23T01:55:15;100192.56;;;5.44;76.48
65718;BME280;52445;52.466;-1.016;2023-02-23T01:57:53;100197.75;;;5.47;76.71
65718;BME280;52445;52.466;-1.016;2023-02-23T02:00:22;100192.63;;;5.47;77.32
65718;BME280;52445;52.466;-1.016;2023-02-23T02:02:51;100192.66;;;5.50;76.77
65718;BME280;52445;52.466;-1.016;2023-02-23T02:05:19;100208.06;;;5.50;77.16
65718;BME280;52445;52.466;-1.016;2023-02-23T02:07:47;100201.13;;;5.46;77.08
65718;BME280;52445;52.466;-1.016;2023-02-23T02:10:15;100194.22;;;5.42;78.10
65718;BME280;52445;52.466;-1.016;2023-02-23T02:12:54;100197.63;;;5.40;77.61
65718;BME280;52445;52.466;-1.016;2023-02-23T02:15:24;100201.88;;;5.40;78.42
65718;BME280;52445;52.466;-1.016;2023-02-23T02:29:42;100204.09;;;5.23;78.87
65718;BME280;52445;52.466;-1.016;2023-02-23T02:35:44;100204.16;;;5.26;79.47
65718;BME280;52445;52.466;-1.016;2023-02-23T02:41:02;100205.97;;;5.30;79.69
65718;BME280;52445;52.466;-1.016;2023-02-23T02:48:56;100211.06;;;5.27;79.22
65718;BME280;52445;52.466;-1.016;2023-02-23T02:51:30;100213.63;;;5.28;79.67
65718;BME280;52445;52.466;-1.016;2023-02-23T02:56:59;100217.09;;;5.31;80.26
65718;BME280;52445;52.466;-1.016;2023-02-23T02:59:27;100216.19;;;5.27;79.89
65718;BME280;52445;52.466;-1.016;2023-02-23T03:02:18;100214.44;;;5.26;80.24
65718;BME280;52445;52.466;-1.016;2023-02-23T03:05:12;100212.81;;;5.30;80.44
65718;BME280;52445;52.466;-1.016;2023-02-23T03:13:42;100207.69;;;5.30;79.92
65718;BME280;52445;52.466;-1.016;2023-02-23T03:21:56;100211.91;;;5.27;81.17
65718;BME280;52445;52.466;-1.016;2023-02-23T03:24:54;100213.63;;;5.28;80.52
65718;BME280;52445;52.466;-1.016;2023-02-23T03:27:48;100211.13;;;5.32;80.20
65718;BME280;52445;52.466;-1.016;2023-02-23T03:33:17;100219.72;;;5.32;80.64
65718;BME280;52445;52.466;-1.016;2023-02-23T03:36:12;100219.78;;;5.35;79.72
65718;BME280;52445;52.466;-1.016;2023-02-23T03:41:54;100230.16;;;5.42;79.67
65718;BME280;52445;52.466;-1.016;2023-02-23T03:44:44;100235.31;;;5.42;80.02
65718;BME280;52445;52.466;-1.016;2023-02-23T03:47:34;100238.53;;;5.31;80.53
65718;BME280;52445;52.466;-1.016;2023-02-23T03:50:29;100238.56;;;5.34;79.96
65718;BME280;52445;52.466;-1.016;2023-02-23T03:53:22;100244.69;;;5.39;79.68
65718;BME280;52445;52.466;-1.016;2023-02-23T03:56:11;100240.53;;;5.45;79.09
65718;BME280;52445;52.466;-1.016;2023-02-23T03:59:00;100243.09;;;5.45;79.23
65718;BME280;52445;52.466;-1.016;2023-02-23T04:01:49;100255.09;;;5.46;79.08
65718;BME280;52445;52.466;-1.016;2023-02-23T04:04:37;100249.19;;;5.50;80.18
65718;BME280;52445;52.466;-1.016;2023-02-23T04:07:25;100262.81;;;5.46;79.21
65718;BME280;52445;52.466;-1.016;2023-02-23T04:10:11;100259.41;;;5.47;78.97
65718;BME280;52445;52.466;-1.016;2023-02-23T04:13:02;100264.56;;;5.47;80.46
65718;BME280;52445;52.466;-1.016;2023-02-23T04:16:00;100264.56;;;5.47;79.03
65718;BME280;52445;52.466;-1.016;2023-02-23T04:18:37;100269.63;;;5.44;79.68
65718;BME280;52445;52.466;-1.016;2023-02-23T04:21:06;100269.66;;;5.45;78.77
65718;BME280;52445;52.466;-1.016;2023-02-23T04:23:33;100284.34;;;5.51;78.92
65718;BME280;52445;52.466;-1.016;2023-02-23T04:26:01;100271.50;;;5.51;78.78
65718;BME280;52445;52.466;-1.016;2023-02-23T04:28:27;100272.22;;;5.45;79.80
65718;BME280;52445;52.466;-1.016;2023-02-23T04:30:54;100283.34;;;5.46;79.81
65718;BME280;52445;52.466;-1.016;2023-02-23T04:33:21;100276.56;;;5.48;79.52
65718;BME280;52445;52.466;-1.016;2023-02-23T04:35:52;100283.50;;;5.52;78.45
65718;BME280;52445;52.466;-1.016;2023-02-23T04:38:20;100276.69;;;5.54;79.20
65718;BME280;52445;52.466;-1.016;2023-02-23T04:40:48;100290.38;;;5.53;79.31
65718;BME280;52445;52.466;-1.016;2023-02-23T04:43:14;100285.31;;;5.56;79.67
65718;BME280;52445;52.466;-1.016;2023-02-23T04:45:41;100283.56;;;5.55;78.44
65718;BME280;52445;52.466;-1.016;2023-02-23T04:48:08;100291.34;;;5.60;79.09
65718;BME280;52445;52.466;-1.016;2023-02-23T04:50:35;100287.88;;;5.56;79.79
65718;BME280;52445;52.466;-1.016;2023-02-23T04:53:01;100303.31;;;5.58;79.68
65718;BME280;52445;52.466;-1.016;2023-02-23T04:55:28;100295.66;;;5.59;79.24
65718;BME280;52445;52.466;-1.016;2023-02-23T04:57:56;100305.84;;;5.56;78.95
65718;BME280;52445;52.466;-1.016;2023-02-23T05:00:25;100310.06;;;5.54;79.65
65718;BME280;52445;52.466;-1.016;2023-02-23T05:02:51;100311.06;;;5.59;79.02
65718;BME280;52445;52.466;-1.016;2023-02-23T05:05:18;100317.94;;;5.60;78.26
65718;BME280;52445;52.466;-1.016;2023-02-23T05:07:45;100320.47;;;5.59;79.51
65718;BME280;52445;52.466;-1.016;2023-02-23T05:10:12;100317.09;;;5.61;79.50
65718;BME280;52445;52.466;-1.016;2023-02-23T05:12:38;100317.94;;;5.60;78.01
65718;BME280;52445;52.466;-1.016;2023-02-23T05:15:05;100323.00;;;5.57;79.58
65718;BME280;52445;52.466;-1.016;2023-02-23T05:17:32;100324.69;;;5.55;79.14
65718;BME280;52445;52.466;-1.016;2023-02-23T05:19:59;100328.03;;;5.51;79.22
65718;BME280;52445;52.466;-1.016;2023-02-23T05:22:25;100335.78;;;5.54;77.99
65718;BME280;52445;52.466;-1.016;2023-02-23T05:24:52;100340.09;;;5.55;79.01
65718;BME280;52445;52.466;-1.016;2023-02-23T05:27:21;100340.94;;;5.56;77.72
65718;BME280;52445;52.466;-1.016;2023-02-23T05:29:48;100346.13;;;5.57;78.58
65718;BME280;52445;52.466;-1.016;2023-02-23T05:32:14;100340.03;;;5.52;78.99
65718;BME280;52445;52.466;-1.016;2023-02-23T05:34:41;100353.84;;;5.57;77.42
65718;BME280;52445;52.466;-1.016;2023-02-23T05:37:08;100351.06;;;5.48;78.76
65718;BME280;52445;52.466;-1.016;2023-02-23T05:39:34;100358.78;;;5.48;78.70
65718;BME280;52445;52.466;-1.016;2023-02-23T05:42:01;100355.41;;;5.50;77.99
65718;BME280;52445;52.466;-1.016;2023-02-23T05:44:27;100359.66;;;5.48;78.24
65718;BME280;52445;52.466;-1.016;2023-02-23T05:46:54;100357.16;;;5.53;77.37
65718;BME280;52445;52.466;-1.016;2023-02-23T05:49:21;100369.13;;;5.51;77.56
65718;BME280;52445;52.466;-1.016;2023-02-23T05:51:47;100357.09;;;5.50;77.88
65718;BME280;52445;52.466;-1.016;2023-02-23T05:54:14;100360.47;;;5.47;78.19
65718;BME280;52445;52.466;-1.016;2023-02-23T05:56:41;100366.56;;;5.51;77.28
65718;BME280;52445;52.466;-1.016;2023-02-23T05:59:08;100362.03;;;5.40;78.58
65718;BME280;52445;52.466;-1.016;2023-02-23T06:01:34;100372.59;;;5.53;78.05
65718;BME280;52445;52.466;-1.016;2023-02-23T06:04:01;100370.78;;;5.49;78.11
65718;BME280;52445;52.466;-1.016;2023-02-23T06:06:30;100367.25;;;5.44;77.81
65718;BME280;52445;52.466;-1.016;2023-02-23T06:08:57;100371.59;;;5.46;78.53
65718;BME280;52445;52.466;-1.016;2023-02-23T06:11:23;100374.28;;;5.51;77.83
65718;BME280;52445;52.466;-1.016;2023-02-23T06:13:50;100381.94;;;5.49;78.59
65718;BME280;52445;52.466;-1.016;2023-02-23T06:16:17;100383.31;;;5.35;79.32
65718;BME280;52445;52.466;-1.016;2023-02-23T06:18:44;100384.31;;;5.42;78.68
65718;BME280;52445;52.466;-1.016;2023-02-23T06:21:11;100384.06;;;5.31;78.90
65718;BME280;52445;52.466;-1.016;2023-02-23T06:23:37;100394.38;;;5.32;78.18
65718;BME280;52445;52.466;-1.016;2023-02-23T06:26:04;100402.22;;;5.37;78.48
65718;BME280;52445;52.466;-1.016;2023-02-23T06:28:30;100408.16;;;5.36;78.63
65718;BME280;52445;52.466;-1.016;2023-02-23T06:30:57;100407.19;;;5.31;77.82
65718;BME280;52445;52.466;-1.016;2023-02-23T06:33:24;100405.41;;;5.28;78.48
65718;BME280;52445;52.466;-1.016;2023-02-23T06:35:51;100406.25;;;5.27;77.09
65718;BME280;52445;52.466;-1.016;2023-02-23T06:38:18;100413.13;;;5.28;77.06
65718;BME280;52445;52.466;-1.016;2023-02-23T06:40:44;100416.44;;;5.24;77.35
65718;BME280;52445;52.466;-1.016;2023-02-23T06:43:11;100416.56;;;5.30;77.95
65718;BME280;52445;52.466;-1.016;2023-02-23T06:45:38;100429.31;;;5.25;76.88
65718;BME280;52445;52.466;-1.016;2023-02-23T06:48:05;100435.31;;;5.26;77.16
65718;BME280;52445;52.466;-1.016;2023-02-23T06:50:31;100433.41;;;5.19;76.87
65718;BME280;52445;52.466;-1.016;2023-02-23T06:52:58;100442.84;;;5.18;75.82
65718;BME280;52445;52.466;-1.016;2023-02-23T06:55:25;100447.03;;;5.16;75.52
65718;BME280;52445;52.466;-1.016;2023-02-23T06:57:52;100448.56;;;5.08;76.32
65718;BME280;52445;52.466;-1.016;2023-02-23T07:00:20;100452.72;;;5.03;75.96
65718;BME280;52445;52.466;-1.016;2023-02-23T07:02:47;100450.19;;;5.04;75.54
65718;BME280;52445;52.466;-1.016;2023-02-23T07:05:14;100461.34;;;5.06;75.89
65718;BME280;52445;52.466;-1.016;2023-02-23T07:07:41;100462.84;;;4.98;75.35
65718;BME280;52445;52.466;-1.016;2023-02-23T07:10:09;100461.06;;;4.95;75.19
65718;BME280;52445;52.466;-1.016;2023-02-23T07:12:35;100466.28;;;4.98;75.97
65718;BME280;52445;52.466;-1.016;2023-02-23T07:15:02;100467.19;;;5.00;75.88
65718;BME280;52445;52.466;-1.016;2023-02-23T07:17:29;100479.16;;;5.00;75.14
65718;BME280;52445;52.466;-1.016;2023-02-23T07:19:56;100483.47;;;5.01;74.86
65718;BME280;52445;52.466;-1.016;2023-02-23T07:22:22;100487.63;;;4.96;75.56
65718;BME280;52445;52.466;-1.016;2023-02-23T07:24:50;100484.16;;;4.95;75.09
65718;BME280;52445;52.466;-1.016;2023-02-23T07:27:17;100497.00;;;4.95;74.82
65718;BME280;52445;52.466;-1.016;2023-02-23T07:29:43;100492.75;;;4.96;75.71
65718;BME280;52445;52.466;-1.016;2023-02-23T07:32:10;100503.59;;;4.85;75.17
65718;BME280;52445;52.466;-1.016;2023-02-23T07:34:37;100509.88;;;4.97;75.44
65718;BME280;52445;52.466;-1.016;2023-02-23T07:37:04;100506.28;;;4.90;74.31
65718;BME280;52445;52.466;-1.016;2023-02-23T07:39:31;100522.63;;;4.94;75.03
65718;BME280;52445;52.466;-1.016;2023-02-23T07:41:57;100520.06;;;4.94;75.07
65718;BME280;52445;52.466;-1.016;2023-02-23T07:44:24;100537.09;;;4.92;74.88
65718;BME280;52445;52.466;-1.016;2023-02-23T07:46:50;100532.91;;;4.94;75.37
65718;BME280;52445;52.466;-1.016;2023-02-23T07:49:18;100548.34;;;4.95;75.20
65718;BME280;52445;52.466;-1.016;2023-02-23T07:51:44;100557.00;;;4.99;75.32
65718;BME280;52445;52.466;-1.016;2023-02-23T07:54:11;100574.06;;;4.97;74.89
65718;BME280;52445;52.466;-1.016;2023-02-23T07:56:38;100568.84;;;4.94;74.13
65718;BME280;52445;52.466;-1.016;2023-02-23T07:59:05;100575.72;;;4.95;75.05
65718;BME280;52445;52.466;-1.016;2023-02-23T08:01:31;100576.72;;;5.00;74.58
65718;BME280;52445;52.466;-1.016;2023-02-23T08:03:58;100569.84;;;4.99;73.89
65718;BME280;52445;52.466;-1.016;2023-02-23T08:06:25;100572.19;;;4.91;74.68
65718;BME280;52445;52.466;-1.016;2023-02-23T08:08:51;100589.47;;;4.97;74.50
65718;BME280;52445;52.466;-1.016;2023-02-23T08:11:18;100591.94;;;4.94;74.90
65718;BME280;52445;52.466;-1.016;2023-02-23T08:13:45;100598.91;;;4.98;74.35
65718;BME280;52445;52.466;-1.016;2023-02-23T08:16:11;100607.44;;;4.97;74.12
65718;BME280;52445;52.466;-1.016;2023-02-23T08:18:38;100615.97;;;4.96;73.93
65718;BME280;52445;52.466;-1.016;2023-02-23T08:21:05;100609.81;;;4.91;73.84
65718;BME280;52445;52.466;-1.016;2023-02-23T08:23:32;100615.16;;;4.97;74.00
65718;BME280;52445;52.466;-1.016;2023-02-23T08:26:00;100612.59;;;4.97;74.56
65718;BME280;52445;52.466;-1.016;2023-02-23T08:28:28;100618.63;;;4.99;73.87
65718;BME280;52445;52.466;-1.016;2023-02-23T08:30:55;100625.53;;;5.01;74.41
65718;BME280;52445;52.466;-1.016;2023-02-23T08:33:22;100626.38;;;5.00;73.92
65718;BME280;52445;52.466;-1.016;2023-02-23T08:35:49;100621.28;;;5.02;73.89
65718;BME280;52445;52.466;-1.016;2023-02-23T08:38:15;100622.94;;;5.00;73.76
65718;BME280;52445;52.466;-1.016;2023-02-23T08:40:43;100613.81;;;5.10;74.45
65718;BME280;52445;52.466;-1.016;2023-02-23T08:43:10;100606.31;;;5.18;73.34
65718;BME280;52445;52.466;-1.016;2023-02-23T08:45:36;100599.78;;;5.29;73.18
65718;BME280;52445;52.466;-1.016;2023-02-23T08:48:06;100601.44;;;5.27;73.02
65718;BME280;52445;52.466;-1.016;2023-02-23T08:50:34;100605.91;;;5.34;73.85
65718;BME280;52445;52.466;-1.016;2023-02-23T08:53:00;100604.16;;;5.33;73.86
65718;BME280;52445;52.466;-1.016;2023-02-23T08:55:27;100599.78;;;5.29;74.05
65718;BME280;52445;52.466;-1.016;2023-02-23T08:57:53;100604.09;;;5.30;72.82
65718;BME280;52445;52.466;-1.016;2023-02-23T09:00:20;100607.44;;;5.27;73.63
65718;BME280;52445;52.466;-1.016;2023-02-23T09:02:47;100603.22;;;5.30;73.26
65718;BME280;52445;52.466;-1.016;2023-02-23T09:05:14;100606.66;;;5.30;73.77
65718;BME280;52445;52.466;-1.016;2023-02-23T09:07:42;100615.19;;;5.29;74.00
65718;BME280;52445;52.466;-1.016;2023-02-23T09:10:12;100619.38;;;5.25;73.82
65718;BME280;52445;52.466;-1.016;2023-02-23T09:12:39;100622.94;;;5.31;72.82
65718;BME280;52445;52.466;-1.016;2023-02-23T09:15:07;100623.88;;;5.34;73.36
65718;BME280;52445;52.466;-1.016;2023-02-23T09:17:33;100625.56;;;5.32;73.25
65718;BME280;52445;52.466;-1.016;2023-02-23T09:20:00;100627.28;;;5.33;72.88
65718;BME280;52445;52.466;-1.016;2023-02-23T09:22:27;100632.44;;;5.33;73.00
65718;BME280;52445;52.466;-1.016;2023-02-23T09:24:54;100638.50;;;5.35;72.98
65718;BME280;52445;52.466;-1.016;2023-02-23T09:27:20;100641.22;;;5.42;72.60
65718;BME280;52445;52.466;-1.016;2023-02-23T09:29:47;100632.91;;;5.50;73.43
65718;BME280;52445;52.466;-1.016;2023-02-23T09:32:14;100635.75;;;5.61;73.44
65718;BME280;52445;52.466;-1.016;2023-02-23T09:34:40;100628.41;;;5.74;72.60
65718;BME280;52445;52.466;-1.016;2023-02-23T09:37:07;100625.97;;;5.80;72.15
65718;BME280;52445;52.466;-1.016;2023-02-23T09:39:34;100632.78;;;5.78;71.98
65718;BME280;52445;52.466;-1.016;2023-02-23T09:50:07;100631.09;;;6.12;72.59
65718;BME280;52445;52.466;-1.016;2023-02-23T09:52:41;100626.41;;;6.31;71.43
65718;BME280;52445;52.466;-1.016;2023-02-23T09:55:12;100628.94;;;7.06;70.72
65718;BME280;52445;52.466;-1.016;2023-02-23T09:57:42;100631.78;;;8.13;70.54
65718;BME280;52445;52.466;-1.016;2023-02-23T10:00:16;100626.47;;;9.21;68.36
65718;BME280;52445;52.466;-1.016;2023-02-23T10:05:45;100622.81;;;11.05;63.29
65718;BME280;52445;52.466;-1.016;2023-02-23T10:16:20;100629.09;;;12.84;59.34
65718;BME280;52445;52.466;-1.016;2023-02-23T10:21:43;100613.78;;;13.97;55.42
65718;BME280;52445;52.466;-1.016;2023-02-23T10:24:17;100622.19;;;14.30;53.96
65718;BME280;52445;52.466;-1.016;2023-02-23T10:26:50;100627.25;;;14.49;53.73
65718;BME280;52445;52.466;-1.016;2023-02-23T10:29:26;100623.56;;;14.70;52.80
65718;BME280;52445;52.466;-1.016;2023-02-23T10:31:59;100620.88;;;14.75;52.11
65718;BME280;52445;52.466;-1.016;2023-02-23T10:34:28;100626.94;;;14.80;51.05
65718;BME280;52445;52.466;-1.016;2023-02-23T10:37:00;100638.16;;;14.88;50.71
65718;BME280;52445;52.466;-1.016;2023-02-23T10:39:28;100632.63;;;15.13;50.95
65718;BME280;52445;52.466;-1.016;2023-02-23T10:42:02;100632.47;;;15.26;50.19
65718;BME280;52445;52.466;-1.016;2023-02-23T10:44:30;100636.78;;;15.30;50.09
65718;BME280;52445;52.466;-1.016;2023-02-23T10:46:59;100637.66;;;15.31;49.37
65718;BME280;52445;52.466;-1.016;2023-02-23T10:49:38;100637.16;;;15.66;49.85
65718;BME280;52445;52.466;-1.016;2023-02-23T10:52:10;100641.31;;;15.80;48.97
65718;BME280;52445;52.466;-1.016;2023-02-23T10:54:42;100633.56;;;15.75;48.01
65718;BME280;52445;52.466;-1.016;2023-02-23T10:57:23;100627.69;;;15.59;47.39
65718;BME280;52445;52.466;-1.016;2023-02-23T11:00:00;100634.66;;;15.57;46.93
65718;BME280;52445;52.466;-1.016;2023-02-23T11:02:29;100636.50;;;15.52;47.15
65718;BME280;52445;52.466;-1.016;2023-02-23T11:04:58;100640.28;;;15.29;46.25
65718;BME280;52445;52.466;-1.016;2023-02-23T11:07:28;100636.34;;;14.94;46.47
65718;BME280;52445;52.466;-1.016;2023-02-23T11:09:56;100634.97;;;14.57;47.17
65718;BME280;52445;52.466;-1.016;2023-02-23T11:15:24;100637.50;;;13.55;47.63
65718;BME280;52445;52.466;-1.016;2023-02-23T11:18:05;100644.56;;;13.18;48.13
65718;BME280;52445;52.466;-1.016;2023-02-23T11:20:35;100655.91;;;12.94;49.23
65718;BME280;52445;52.466;-1.016;2023-02-23T11:23:23;100650.78;;;12.59;48.91
65718;BME280;52445;52.466;-1.016;2023-02-23T11:25:57;100649.09;;;12.43;50.42
65718;BME280;52445;52.466;-1.016;2023-02-23T11:31:12;100649.94;;;12.06;51.05
65718;BME280;52445;52.466;-1.016;2023-02-23T11:33:41;100653.38;;;11.99;50.67
65718;BME280;52445;52.466;-1.016;2023-02-23T11:36:25;100655.94;;;11.88;51.42
65718;BME280;52445;52.466;-1.016;2023-02-23T11:45:14;100654.13;;;11.49;50.69
65718;BME280;52445;52.466;-1.016;2023-02-23T11:47:44;100653.22;;;11.35;51.55
65718;BME280;52445;52.466;-1.016;2023-02-23T11:53:11;100652.16;;;10.92;53.24
65718;BME280;52445;52.466;-1.016;2023-02-23T11:55:54;100653.00;;;10.88;53.46
65718;BME280;52445;52.466;-1.016;2023-02-23T11:58:32;100647.72;;;10.74;52.16
65718;BME280;52445;52.466;-1.016;2023-02-23T12:01:06;100639.88;;;10.63;52.49
65718;BME280;52445;52.466;-1.016;2023-02-23T12:03:43;100654.41;;;10.44;52.10
65718;BME280;52445;52.466;-1.016;2023-02-23T12:06:10;100656.84;;;10.26;53.05
65718;BME280;52445;52.466;-1.016;2023-02-23T12:08:48;100657.69;;;10.22;54.04
65718;BME280;52445;52.466;-1.016;2023-02-23T12:11:22;100659.34;;;10.19;53.80
65718;BME280;52445;52.466;-1.016;2023-02-23T12:13:56;100655.91;;;10.16;54.10
65718;BME280;52445;52.466;-1.016;2023-02-23T12:16:28;100665.22;;;10.00;53.25
65718;BME280;52445;52.466;-1.016;2023-02-23T12:19:03;100664.34;;;9.95;53.98
65718;BME280;52445;52.466;-1.016;2023-02-23T12:21:37;100649.47;;;9.75;53.16
65718;BME280;52445;52.466;-1.016;2023-02-23T12:26:47;100658.09;;;9.74;54.33
65718;BME280;52445;52.466;-1.016;2023-02-23T12:29:22;100656.50;;;9.89;55.29
65718;BME280;52445;52.466;-1.016;2023-02-23T12:31:56;100648.88;;;10.03;55.43
65718;BME280;52445;52.466;-1.016;2023-02-23T12:34:43;100653.22;;;10.06;54.93
65718;BME280;52445;52.466;-1.016;2023-02-23T12:37:41;100661.81;;;10.01;54.31
65718;BME280;52445;52.466;-1.016;2023-02-23T12:40:14;100646.28;;;10.01;55.72
65718;BME280;52445;52.466;-1.016;2023-02-23T12:45:34;100647.03;;;9.91;55.03
65718;BME280;52445;52.466;-1.016;2023-02-23T12:50:55;100654.63;;;9.72;55.21
65718;BME280;52445;52.466;-1.016;2023-02-23T12:56:15;100661.28;;;9.51;55.03
65718;BME280;52445;52.466;-1.016;2023-02-23T13:01:38;100656.03;;;9.45;55.59
65718;BME280;52445;52.466;-1.016;2023-02-23T13:06:56;100656.78;;;9.36;54.84
65718;BME280;52445;52.466;-1.016;2023-02-23T13:09:35;100655.00;;;9.31;55.19
65718;BME280;52445;52.466;-1.016;2023-02-23T13:18:23;100665.41;;;9.35;54.51
65718;BME280;52445;52.466;-1.016;2023-02-23T13:20:57;100656.75;;;9.30;54.98
65718;BME280;52445;52.466;-1.016;2023-02-23T13:31:34;100649.56;;;9.07;55.33
65718;BME280;52445;52.466;-1.016;2023-02-23T13:34:06;100652.28;;;9.18;55.30
65718;BME280;52445;52.466;-1.016;2023-02-23T13:36:35;100659.28;;;9.27;55.07
65718;BME280;52445;52.466;-1.016;2023-02-23T13:41:45;100652.44;;;9.32;53.97
65718;BME280;52445;52.466;-1.016;2023-02-23T13:44:37;100651.44;;;9.18;53.21
65718;BME280;52445;52.466;-1.016;2023-02-23T13:47:31;100658.19;;;9.09;54.20
65718;BME280;52445;52.466;-1.016;2023-02-23T13:56:07;100653.03;;;9.11;54.95
65718;BME280;52445;52.466;-1.016;2023-02-23T13:58:34;100655.59;;;9.06;55.66
65718;BME280;52445;52.466;-1.016;2023-02-23T14:01:10;100652.03;;;8.99;54.84
65718;BME280;52445;52.466;-1.016;2023-02-23T14:03:44;100664.06;;;8.97;54.94
65718;BME280;52445;52.466;-1.016;2023-02-23T14:06:14;100657.94;;;8.89;54.67
65718;BME280;52445;52.466;-1.016;2023-02-23T14:08:44;100656.97;;;8.81;54.47
65718;BME280;52445;52.466;-1.016;2023-02-23T14:22:22;100664.94;;;8.99;55.03
65718;BME280;52445;52.466;-1.016;2023-02-23T14:27:57;100663.06;;;8.87;54.75
65718;BME280;52445;52.466;-1.016;2023-02-23T14:30:29;100668.06;;;8.77;55.24
65718;BME280;52445;52.466;-1.016;2023-02-23T14:39:17;100663.13;;;8.35;54.94
65718;BME280;52445;52.466;-1.016;2023-02-23T14:41:57;100663.94;;;8.34;55.06
65718;BME280;52445;52.466;-1.016;2023-02-23T14:44:28;100663.19;;;8.41;55.61
65718;BME280;52445;52.466;-1.016;2023-02-23T14:47:04;100668.47;;;8.47;55.46
65718;BME280;52445;52.466;-1.016;2023-02-23T14:49:36;100665.09;;;8.52;55.24
65718;BME280;52445;52.466;-1.016;2023-02-23T14:52:08;100671.09;;;8.51;55.85
65718;BME280;52445;52.466;-1.016;2023-02-23T14:54:39;100662.31;;;8.39;55.21
65718;BME280;52445;52.466;-1.016;2023-02-23T14:57:24;100669.09;;;8.32;55.43
65718;BME280;52445;52.466;-1.016;2023-02-23T14:59:56;100669.09;;;8.34;55.54
65718;BME280;52445;52.466;-1.016;2023-02-23T15:02:25;100664.91;;;8.39;56.18
65718;BME280;52445;52.466;-1.016;2023-02-23T15:04:52;100664.91;;;8.39;55.09
65718;BME280;52445;52.466;-1.016;2023-02-23T15:07:32;100662.34;;;8.41;55.54
65718;BME280;52445;52.466;-1.016;2023-02-23T15:10:08;100670.06;;;8.39;55.98
65718;BME280;52445;52.466;-1.016;2023-02-23T15:12:36;100669.19;;;8.39;55.14
65718;BME280;52445;52.466;-1.016;2023-02-23T15:15:09;100664.81;;;8.34;54.89
65718;BME280;52445;52.466;-1.016;2023-02-23T15:17:41;100666.47;;;8.29;53.80
65718;BME280;52445;52.466;-1.016;2023-02-23T15:20:14;100663.13;;;8.35;54.68
65718;BME280;52445;52.466;-1.016;2023-02-23T15:22:45;100664.00;;;8.37;55.09
65718;BME280;52445;52.466;-1.016;2023-02-23T15:27:49;100659.88;;;8.48;54.79
65718;BME280;52445;52.466;-1.016;2023-02-23T15:33:04;100653.72;;;8.40;54.68